Time;durP1;ratioP1;P1;durP2;ratioP2;P2;SDS_P1;SDS_P2;PMS_P1;PMS_P2;Temp;Humidity;BMP_temperature;BMP_pressure;BME280_temperature;BME280_humidity;BME280_pressure;Samples;Min_cycle;Max_cycle;Signal;HPM_P1;HPM_P2
2022/02/12 00:00:07;;;;;;;16.85;6.43;;;;;;;-2.52;95.43;100223.44;5082834;28;20027;-68
2022/02/12 00:02:32;;;;;;;13.77;6.65;;;;;;;-2.72;95.38;100224.00;5082774;28;20080;-68
2022/02/12 00:04:58;;;;;;;16.42;7.40;;;;;;;-2.68;95.20;100220.78;5083027;28;20035;-68
2022/02/12 00:07:23;;;;;;;17.98;6.70;;;;;;;-2.62;95.34;100222.00;5083143;28;20066;-68
2022/02/12 00:09:49;;;;;;;26.13;8.05;;;;;;;-2.59;95.33;100216.16;5082619;28;20035;-68
2022/02/12 00:12:14;;;;;;;17.95;7.00;;;;;;;-2.56;95.78;100216.34;5082781;28;20024;-68
2022/02/12 00:14:40;;;;;;;27.55;7.47;;;;;;;-2.61;96.07;100217.75;5077704;28;20051;-68
2022/02/12 00:17:05;;;;;;;17.70;7.22;;;;;;;-2.54;95.79;100219.88;5082841;28;20020;-68
2022/02/12 00:19:31;;;;;;;13.32;7.60;;;;;;;-2.60;95.88;100220.41;5082853;28;20113;-68
2022/02/12 00:21:56;;;;;;;17.90;7.05;;;;;;;-2.68;96.13;100205.31;5082635;28;20024;-68
2022/02/12 00:24:22;;;;;;;22.35;7.90;;;;;;;-2.78;96.02;100224.50;5082600;28;20032;-68
2022/02/12 00:26:47;;;;;;;14.75;8.48;;;;;;;-2.94;95.73;100210.66;5082702;28;20039;-68
2022/02/12 00:29:12;;;;;;;20.85;6.88;;;;;;;-2.82;95.88;100211.34;5078899;28;20028;-68
2022/02/12 00:31:38;;;;;;;15.43;7.72;;;;;;;-2.92;95.54;100209.94;5082369;28;20113;-68
2022/02/12 00:34:03;;;;;;;22.77;9.98;;;;;;;-2.92;96.41;100204.78;5082643;28;20028;-68
2022/02/12 00:36:29;;;;;;;73.43;17.38;;;;;;;-2.84;96.53;100202.66;5082538;28;20066;-68
2022/02/12 00:38:54;;;;;;;32.78;12.05;;;;;;;-2.89;96.44;100194.66;5083026;28;20028;-68
2022/02/12 00:41:20;;;;;;;30.38;9.95;;;;;;;-2.92;96.25;100201.31;5082958;28;20119;-68
2022/02/12 00:43:45;;;;;;;41.65;11.35;;;;;;;-2.82;96.52;100185.59;5082645;28;20194;-68
2022/02/12 00:46:11;;;;;;;11.88;6.07;;;;;;;-2.88;96.27;100195.56;5083407;28;20342;-68
2022/02/12 00:48:36;;;;;;;19.67;6.57;;;;;;;-2.90;95.77;100197.16;5086366;28;20056;-68
2022/02/12 00:51:02;;;;;;;25.42;7.07;;;;;;;-2.93;96.06;100199.56;5086031;28;20079;-68
2022/02/12 00:53:28;;;;;;;19.02;6.32;;;;;;;-2.86;95.90;100199.09;5086108;28;20302;-68
2022/02/12 00:55:53;;;;;;;15.48;6.57;;;;;;;-2.89;95.16;100188.63;5086271;28;20024;-68
2022/02/12 00:58:19;;;;;;;15.23;5.85;;;;;;;-3.04;94.86;100187.75;5086468;28;20044;-68
2022/02/12 01:00:45;;;;;;;22.98;6.53;;;;;;;-2.99;95.55;100189.78;5086071;28;20032;-68
2022/02/12 01:03:11;;;;;;;10.27;6.20;;;;;;;-3.03;96.09;100186.94;5086013;28;20016;-68
2022/02/12 01:05:37;;;;;;;13.27;7.55;;;;;;;-2.94;96.01;100174.59;5085448;28;20189;-68
2022/02/12 01:08:03;;;;;;;18.00;6.65;;;;;;;-3.10;95.39;100171.94;5085848;28;20103;-68
2022/02/12 01:10:32;;;;;;;8.43;5.47;;;;;;;-3.17;95.47;100170.69;5086271;28;20212;-68
2022/02/12 01:12:59;;;;;;;19.08;4.97;;;;;;;-3.18;95.72;100170.59;5086055;28;20335;-68
2022/02/12 01:15:24;;;;;;;23.13;5.53;;;;;;;-3.06;95.87;100163.59;5085942;28;20027;-68
2022/02/12 01:17:50;;;;;;;16.55;6.50;;;;;;;-3.11;96.06;100159.84;5085645;28;20036;-68
2022/02/12 01:20:15;;;;;;;18.77;6.93;;;;;;;-3.12;95.87;100163.22;5085948;28;20048;-68
2022/02/12 01:22:41;;;;;;;13.93;5.15;;;;;;;-3.10;95.74;100156.50;5085685;28;20437;-68
2022/02/12 01:25:08;;;;;;;17.88;7.53;;;;;;;-3.11;95.89;100155.59;5085930;28;20028;-68
2022/02/12 01:27:34;;;;;;;17.65;7.13;;;;;;;-3.06;95.98;100161.00;5085671;28;20216;-68
2022/02/12 01:30:00;;;;;;;11.23;6.03;;;;;;;-3.44;94.98;100155.31;5085322;28;20082;-68
2022/02/12 01:32:28;;;;;;;16.73;6.18;;;;;;;-3.33;95.84;100160.28;5085593;28;20338;-68
2022/02/12 01:34:55;;;;;;;15.40;6.85;;;;;;;-3.31;96.49;100152.66;5085476;28;20025;-68
2022/02/12 01:37:21;;;;;;;16.05;5.70;;;;;;;-3.26;96.00;100156.41;5085540;28;20026;-68
2022/02/12 01:39:47;;;;;;;11.93;6.60;;;;;;;-3.25;95.66;100151.34;5085399;28;20028;-68
2022/02/12 01:42:13;;;;;;;18.38;7.10;;;;;;;-3.46;95.83;100144.03;5085567;28;20020;-68
2022/02/12 01:44:39;;;;;;;10.50;6.03;;;;;;;-3.42;96.08;100151.16;5081485;28;20054;-68
2022/02/12 01:47:06;;;;;;;18.60;6.85;;;;;;;-3.50;96.97;100147.22;5085411;28;20021;-68
2022/02/12 01:49:33;;;;;;;21.15;6.65;;;;;;;-3.34;96.54;100149.91;5085308;28;20028;-68
2022/02/12 01:51:59;;;;;;;10.45;4.63;;;;;;;-3.32;96.06;100143.16;5085136;28;20024;-68
2022/02/12 01:54:28;;;;;;;10.50;5.35;;;;;;;-3.44;96.18;100138.19;5085340;28;20118;-68
2022/02/12 01:56:55;;;;;;;11.57;4.53;;;;;;;-3.38;96.21;100143.69;5084780;28;20024;-68
2022/02/12 01:59:22;;;;;;;10.10;4.75;;;;;;;-3.36;96.48;100136.06;5084594;28;20030;-68
2022/02/12 02:01:48;;;;;;;12.75;6.45;;;;;;;-3.28;96.12;100139.97;5081797;28;20044;-68
2022/02/12 02:04:15;;;;;;;12.45;5.13;;;;;;;-3.35;95.75;100130.97;5084913;28;20023;-68
2022/02/12 02:06:42;;;;;;;19.92;6.68;;;;;;;-3.39;95.70;100130.75;5085223;28;20028;-68
2022/02/12 02:09:09;;;;;;;10.02;4.25;;;;;;;-3.32;95.46;100133.72;5084909;28;20020;-68
2022/02/12 02:11:36;;;;;;;17.63;5.68;;;;;;;-3.29;95.38;100127.91;5084849;28;20021;-68
2022/02/12 02:14:03;;;;;;;23.42;5.40;;;;;;;-3.46;94.62;100123.44;5085005;28;20031;-68
2022/02/12 02:16:29;;;;;;;13.70;5.47;;;;;;;-3.58;94.65;100117.59;5084711;28;20028;-68
2022/02/12 02:18:54;;;;;;;13.70;5.80;;;;;;;-3.59;94.73;100110.66;5084661;28;20039;-68
2022/02/12 02:21:22;;;;;;;16.38;6.90;;;;;;;-3.54;95.34;100114.38;5084744;28;20379;-68
2022/02/12 02:23:48;;;;;;;9.63;5.80;;;;;;;-3.46;95.07;100115.72;5084366;28;20109;-68
2022/02/12 02:26:14;;;;;;;14.07;6.55;;;;;;;-3.57;94.82;100109.97;5084704;28;20320;-68
2022/02/12 02:28:40;;;;;;;19.95;6.22;;;;;;;-3.55;95.07;100107.47;5084534;28;20051;-68
2022/02/12 02:31:06;;;;;;;10.35;5.85;;;;;;;-3.60;95.79;100103.72;5084293;28;20329;-68
2022/02/12 02:33:31;;;;;;;15.50;5.97;;;;;;;-3.72;95.21;100100.44;5083327;28;20324;-68
2022/02/12 02:35:57;;;;;;;8.73;3.95;;;;;;;-3.75;96.59;100102.81;5084345;28;20044;-68
2022/02/12 02:38:24;;;;;;;35.17;5.03;;;;;;;-3.71;96.56;100104.75;5084408;28;20243;-68
2022/02/12 02:40:52;;;;;;;14.68;6.15;;;;;;;-3.72;96.10;100097.84;5084472;28;20025;-68
2022/02/12 02:43:18;;;;;;;12.13;5.85;;;;;;;-3.71;95.83;100108.25;5084298;28;20020;-68
2022/02/12 02:45:43;;;;;;;27.00;6.30;;;;;;;-3.70;95.70;100104.00;5083825;28;20048;-68
2022/02/12 02:48:09;;;;;;;9.68;4.38;;;;;;;-3.65;95.16;100097.41;5084266;28;20114;-68
2022/02/12 02:56:09;;;;;;;9.63;4.45;;;;;;;-3.76;95.20;100094.22;5083618;28;20216;-68
2022/02/12 02:58:38;;;;;;;7.40;3.30;;;;;;;-3.67;94.65;100088.75;5083887;28;20080;-68
2022/02/12 03:01:16;;;;;;;9.30;5.15;;;;;;;-3.72;94.69;100087.56;5082866;28;20020;-68
2022/02/12 03:03:43;;;;;;;8.82;5.38;;;;;;;-3.72;94.74;100083.31;5083387;28;20016;-68
2022/02/12 03:06:11;;;;;;;9.52;4.53;;;;;;;-3.83;95.30;100083.47;5083838;28;20024;-68
2022/02/12 03:08:37;;;;;;;12.57;5.13;;;;;;;-3.98;94.20;100085.13;5083075;28;20035;-68
2022/02/12 03:11:04;;;;;;;15.70;5.25;;;;;;;-3.94;95.47;100075.13;5083918;28;20020;-68
2022/02/12 03:13:30;;;;;;;13.88;5.13;;;;;;;-3.80;95.21;100073.38;5084030;28;20329;-68
2022/02/12 03:15:56;;;;;;;15.18;6.00;;;;;;;-3.87;95.59;100084.06;5083922;28;20024;-68
2022/02/12 03:18:22;;;;;;;15.73;6.97;;;;;;;-3.85;95.20;100079.91;5083441;28;20031;-68
2022/02/12 03:20:48;;;;;;;12.55;5.88;;;;;;;-3.85;95.78;100082.50;5083221;28;20279;-68
2022/02/12 03:23:13;;;;;;;6.97;3.90;;;;;;;-3.77;95.43;100089.00;5083710;28;20347;-68
2022/02/12 03:25:39;;;;;;;10.77;4.75;;;;;;;-3.85;95.03;100074.78;5083210;28;20028;-68
2022/02/12 03:28:06;;;;;;;8.20;4.70;;;;;;;-3.85;95.64;100075.69;5083552;28;20082;-68
2022/02/12 03:30:40;;;;;;;16.33;6.60;;;;;;;-3.94;94.42;100074.22;5083031;28;20032;-68
2022/02/12 03:33:06;;;;;;;14.85;4.93;;;;;;;-3.94;95.60;100069.09;5078337;28;20047;-68
2022/02/12 03:35:32;;;;;;;19.25;6.93;;;;;;;-3.91;95.87;100074.41;5083554;28;20024;-68
2022/02/12 03:38:12;;;;;;;19.58;6.32;;;;;;;-3.82;95.35;100072.38;5083029;28;20051;-68
2022/02/12 03:40:40;;;;;;;9.07;5.20;;;;;;;-3.79;94.52;100064.84;5083744;28;20020;-68
2022/02/12 03:43:06;;;;;;;16.10;6.55;;;;;;;-3.92;93.61;100067.50;5083412;28;20017;-68
2022/02/12 03:45:33;;;;;;;18.02;5.53;;;;;;;-3.95;94.11;100060.50;5083034;28;20031;-68
2022/02/12 03:47:59;;;;;;;10.45;5.72;;;;;;;-3.98;94.90;100059.41;5083088;28;20028;-68
2022/02/12 03:50:25;;;;;;;19.48;7.93;;;;;;;-3.95;94.32;100049.31;5083413;28;20324;-68
2022/02/12 03:52:50;;;;;;;14.65;5.75;;;;;;;-3.96;94.19;100057.84;5080444;28;20024;-68
2022/02/12 03:55:17;;;;;;;15.57;7.15;;;;;;;-3.99;94.16;100055.09;5082963;28;20141;-68
2022/02/12 03:57:43;;;;;;;7.22;4.38;;;;;;;-4.12;94.29;100052.56;5083408;28;20137;-68
2022/02/12 04:00:12;;;;;;;14.82;5.40;;;;;;;-4.05;94.60;100047.00;5082934;28;20482;-68
2022/02/12 04:02:39;;;;;;;9.98;4.60;;;;;;;-4.17;94.59;100043.69;5082851;28;20021;-68
2022/02/12 04:05:05;;;;;;;12.65;4.82;;;;;;;-4.11;95.02;100054.34;5082817;28;20228;-68
2022/02/12 04:07:30;;;;;;;19.50;5.68;;;;;;;-4.14;94.16;100043.88;5083031;28;20023;-68
2022/02/12 04:09:56;;;;;;;12.45;4.85;;;;;;;-4.14;95.19;100039.63;5082632;28;20020;-68
2022/02/12 04:12:21;;;;;;;16.25;6.57;;;;;;;-4.17;94.83;100038.53;5082814;28;20020;-68
2022/02/12 04:14:47;;;;;;;18.35;5.97;;;;;;;-4.14;95.40;100038.72;5082783;28;20043;-68
2022/02/12 04:17:12;;;;;;;17.52;6.78;;;;;;;-4.19;95.44;100034.97;5082767;28;20083;-68
2022/02/12 04:19:38;;;;;;;8.55;5.05;;;;;;;-4.16;95.56;100025.78;5082969;28;20024;-68
2022/02/12 04:22:03;;;;;;;13.85;6.25;;;;;;;-3.99;95.64;100029.38;5085172;28;20024;-68
2022/02/12 04:24:28;;;;;;;14.95;5.75;;;;;;;-4.05;95.01;100024.72;5086951;28;20224;-68
2022/02/12 04:26:54;;;;;;;9.85;5.25;;;;;;;-4.10;94.25;100017.53;5086836;28;20024;-68
2022/02/12 04:29:20;;;;;;;9.73;5.13;;;;;;;-4.00;94.41;100019.84;5086881;28;20032;-68
2022/02/12 04:31:45;;;;;;;7.50;4.10;;;;;;;-4.05;94.07;100024.72;5086558;28;20040;-68
2022/02/12 04:34:11;;;;;;;9.85;5.28;;;;;;;-4.08;94.68;100008.25;5086816;28;20037;-68
2022/02/12 04:36:36;;;;;;;11.77;5.75;;;;;;;-3.98;94.32;100001.19;5086567;28;20062;-68
2022/02/12 04:39:02;;;;;;;8.73;5.18;;;;;;;-4.06;93.84;100004.97;5086718;28;20028;-68
2022/02/12 04:41:27;;;;;;;17.98;5.72;;;;;;;-4.23;93.15;100012.47;5086642;28;20020;-68
2022/02/12 04:43:52;;;;;;;20.05;6.20;;;;;;;-4.11;93.91;100002.94;5086961;28;20028;-68
2022/02/12 04:46:18;;;;;;;12.10;6.53;;;;;;;-4.12;93.92;100001.16;5086366;28;20220;-68
2022/02/12 04:48:48;;;;;;;20.55;5.22;;;;;;;-4.31;93.40;99988.00;5086974;28;20016;-68
2022/02/12 04:51:15;;;;;;;7.63;4.40;;;;;;;-4.26;94.42;99986.59;5086497;28;20012;-68
2022/02/12 04:53:41;;;;;;;11.70;6.57;;;;;;;-4.29;94.03;99986.41;5086265;28;20062;-68
2022/02/12 04:56:06;;;;;;;20.25;6.53;;;;;;;-4.25;94.09;99993.53;5086187;28;20095;-68
2022/02/12 04:58:31;;;;;;;7.95;4.53;;;;;;;-4.25;93.42;99990.94;5086205;28;20100;-68
2022/02/12 05:00:57;;;;;;;8.18;4.65;;;;;;;-4.21;93.75;99990.34;5086105;28;20040;-68
2022/02/12 05:03:23;;;;;;;28.45;5.78;;;;;;;-4.33;93.27;99990.50;5086282;28;20024;-68
2022/02/12 05:05:48;;;;;;;8.23;4.22;;;;;;;-4.39;93.75;99984.09;5086073;28;20020;-68
2022/02/12 05:08:13;;;;;;;7.78;4.00;;;;;;;-4.42;94.22;99977.09;5086065;28;20016;-68
2022/02/12 05:10:39;;;;;;;16.67;5.13;;;;;;;-4.29;94.75;99970.97;5085807;28;20063;-68
2022/02/12 05:13:05;;;;;;;13.68;5.45;;;;;;;-4.25;93.88;99966.13;5086324;28;20016;-68
2022/02/12 05:15:30;;;;;;;8.90;4.47;;;;;;;-4.43;93.95;99966.72;5086072;28;20358;-68
2022/02/12 05:17:56;;;;;;;10.23;4.25;;;;;;;-4.29;93.94;99965.84;5085699;28;20020;-68
2022/02/12 05:20:21;;;;;;;11.18;4.80;;;;;;;-4.29;94.05;99970.97;5085798;28;20216;-68
2022/02/12 05:22:47;;;;;;;20.77;4.72;;;;;;;-4.40;93.67;99959.19;5085858;28;20021;-68
2022/02/12 05:25:12;;;;;;;10.40;5.90;;;;;;;-4.42;93.59;99954.81;5085738;28;20017;-68
2022/02/12 05:27:38;;;;;;;8.13;3.95;;;;;;;-4.49;94.21;99957.81;5085846;28;20069;-68
2022/02/12 05:30:04;;;;;;;8.73;4.45;;;;;;;-4.55;94.02;99951.44;5085461;28;20075;-68
2022/02/12 05:32:29;;;;;;;8.07;4.47;;;;;;;-4.46;94.39;99947.75;5085197;28;20029;-67
2022/02/12 05:34:56;;;;;;;10.20;4.32;;;;;;;-4.59;93.25;99945.22;5085541;28;20031;-67
2022/02/12 05:37:21;;;;;;;15.82;4.75;;;;;;;-4.61;93.28;99941.72;5085757;28;20025;-67
2022/02/12 05:39:47;;;;;;;6.43;3.92;;;;;;;-4.53;93.69;99930.19;5085378;28;20316;-67
2022/02/12 05:42:12;;;;;;;17.00;5.97;;;;;;;-4.65;93.10;99929.44;5085405;28;20053;-67
2022/02/12 05:44:37;;;;;;;15.25;3.97;;;;;;;-4.72;93.86;99936.69;5085730;28;20062;-67
2022/02/12 05:47:03;;;;;;;16.70;6.32;;;;;;;-4.64;93.38;99933.81;5085298;28;20087;-68
2022/02/12 05:49:28;;;;;;;15.77;3.55;;;;;;;-4.57;94.15;99922.22;5085451;28;20042;-68
2022/02/12 05:51:54;;;;;;;9.30;4.55;;;;;;;-4.74;93.04;99918.63;5085501;28;20351;-68
2022/02/12 05:54:19;;;;;;;16.73;5.55;;;;;;;-4.87;94.00;99921.25;5085388;28;20020;-68
2022/02/12 05:56:45;;;;;;;13.55;6.03;;;;;;;-4.70;93.77;99920.59;5085128;28;20080;-68
2022/02/12 05:59:13;;;;;;;11.27;6.00;;;;;;;-4.64;93.70;99925.22;5084997;28;20021;-68
2022/02/12 06:01:40;;;;;;;11.77;6.38;;;;;;;-4.62;93.62;99919.34;5085431;28;20020;-68
2022/02/12 06:04:05;;;;;;;6.47;3.88;;;;;;;-4.67;93.00;99925.91;5085164;28;20070;-68
2022/02/12 06:06:31;;;;;;;16.17;6.50;;;;;;;-4.64;93.64;99923.53;5085603;28;20336;-68
2022/02/12 06:08:56;;;;;;;8.30;5.63;;;;;;;-4.69;93.73;99914.66;5084826;28;20327;-68
2022/02/12 06:11:21;;;;;;;6.05;3.45;;;;;;;-4.80;93.93;99915.72;5084938;28;20020;-68
2022/02/12 06:13:51;;;;;;;10.32;5.18;;;;;;;-4.82;93.02;99919.84;5084928;28;20339;-68
2022/02/12 06:16:18;;;;;;;12.40;5.03;;;;;;;-4.73;93.42;99910.13;5085207;28;20057;-68
2022/02/12 06:18:44;;;;;;;7.88;5.30;;;;;;;-4.81;93.75;99901.06;5084604;28;20017;-68
2022/02/12 06:21:10;;;;;;;8.75;4.68;;;;;;;-4.92;94.25;99907.25;5084588;28;20016;-68
2022/02/12 06:23:36;;;;;;;14.10;5.18;;;;;;;-4.79;93.64;99894.38;5084821;28;20016;-68
2022/02/12 06:26:02;;;;;;;10.65;3.90;;;;;;;-4.84;94.30;99890.63;5084722;28;20197;-68
2022/02/12 06:28:27;;;;;;;18.55;3.92;;;;;;;-4.96;94.61;99894.13;5084711;28;20051;-68
2022/02/12 06:30:52;;;;;;;16.00;5.25;;;;;;;-4.91;95.14;99883.34;5084505;28;20049;-68
2022/02/12 06:33:18;;;;;;;7.28;3.45;;;;;;;-4.84;94.98;99882.91;5085544;28;20036;-68
2022/02/12 06:35:43;;;;;;;7.18;3.92;;;;;;;-4.86;94.63;99879.38;5085433;28;20032;-68
2022/02/12 06:38:10;;;;;;;8.68;3.97;;;;;;;-4.76;94.25;99884.28;5085352;28;20219;-68
2022/02/12 06:40:36;;;;;;;33.22;5.88;;;;;;;-4.75;94.10;99880.00;5085609;28;20216;-68
2022/02/12 06:43:03;;;;;;;14.57;5.47;;;;;;;-4.87;93.48;99875.03;5085258;28;20020;-68
2022/02/12 06:45:29;;;;;;;5.43;3.42;;;;;;;-4.75;93.28;99880.91;5084660;28;20240;-68
2022/02/12 06:47:55;;;;;;;9.52;4.05;;;;;;;-4.81;93.47;99870.25;5085254;28;20021;-68
2022/02/12 06:50:21;;;;;;;23.58;4.70;;;;;;;-4.75;93.01;99875.78;5085423;28;20024;-68
2022/02/12 06:52:46;;;;;;;5.50;3.00;;;;;;;-4.77;93.18;99872.22;5085173;28;20024;-68
2022/02/12 06:55:12;;;;;;;12.60;6.05;;;;;;;-4.77;92.83;99861.94;5085050;28;20066;-68
2022/02/12 06:57:38;;;;;;;7.78;3.33;;;;;;;-4.69;92.72;99871.00;5083200;28;20033;-68
2022/02/12 07:00:04;;;;;;;7.35;4.05;;;;;;;-4.66;92.99;99854.88;5084034;28;20201;-68
2022/02/12 07:02:30;;;;;;;10.25;3.47;;;;;;;-4.70;92.48;99863.19;5083978;28;20024;-68
2022/02/12 07:04:57;;;;;;;7.05;3.88;;;;;;;-4.76;92.27;99863.72;5083944;28;20027;-68
2022/02/12 07:07:23;;;;;;;6.65;4.53;;;;;;;-4.72;92.77;99850.28;5083684;28;20017;-68
2022/02/12 07:09:48;;;;;;;9.52;5.00;;;;;;;-4.69;93.30;99850.44;5082514;28;20350;-68
2022/02/12 07:12:14;;;;;;;6.68;4.63;;;;;;;-4.63;93.07;99847.34;5082771;28;20084;-68
2022/02/12 07:14:39;;;;;;;19.08;5.72;;;;;;;-4.52;93.18;99854.88;5077836;28;20084;-68
2022/02/12 07:17:04;;;;;;;19.30;3.05;;;;;;;-4.43;93.24;99851.09;5082833;28;20083;-68
2022/02/12 07:19:34;;;;;;;12.55;3.72;;;;;;;-4.29;93.10;99857.91;5082944;28;20042;-68
2022/02/12 07:22:00;;;;;;;18.23;5.18;;;;;;;-4.11;93.45;99865.00;5082023;28;20031;-68
2022/02/12 07:24:25;;;;;;;19.13;5.40;;;;;;;-4.06;93.19;99867.81;5082449;28;20219;-68
2022/02/12 07:26:51;;;;;;;8.07;4.55;;;;;;;-3.95;94.16;99872.78;5082791;28;20024;-68
2022/02/12 07:29:16;;;;;;;8.68;4.88;;;;;;;-3.84;94.07;99870.78;5082581;28;20020;-68
2022/02/12 07:31:41;;;;;;;13.35;5.80;;;;;;;-3.58;94.83;99868.88;5082228;28;20082;-68
2022/02/12 07:34:08;;;;;;;8.15;3.58;;;;;;;-3.46;94.93;99878.94;5082951;28;20215;-68
2022/02/12 07:36:33;;;;;;;14.68;4.70;;;;;;;-3.32;94.40;99880.59;5082079;28;20036;-68
2022/02/12 07:38:59;;;;;;;10.82;2.70;;;;;;;-3.23;94.39;99881.97;5083039;28;20028;-68
2022/02/12 07:41:26;;;;;;;14.63;8.55;;;;;;;-3.14;93.95;99881.56;5083334;28;20327;-68
2022/02/12 07:43:51;;;;;;;26.98;8.00;;;;;;;-3.03;93.61;99883.06;5083125;28;20056;-68
2022/02/12 07:46:17;;;;;;;18.60;5.55;;;;;;;-2.75;96.15;99888.88;5083227;28;20021;-68
2022/02/12 07:48:43;;;;;;;11.50;6.18;;;;;;;-2.65;95.36;99885.97;5082606;28;20012;-68
2022/02/12 07:51:09;;;;;;;16.08;6.15;;;;;;;-2.54;95.10;99887.38;5083384;28;20027;-68
2022/02/12 07:53:35;;;;;;;7.50;4.13;;;;;;;-2.22;96.18;99892.47;5083438;28;20020;-68
2022/02/12 07:56:00;;;;;;;18.73;6.88;;;;;;;-1.81;97.31;99895.41;5083084;28;20048;-68
2022/02/12 07:58:26;;;;;;;26.58;6.28;;;;;;;-1.49;96.76;99895.25;5083032;28;20027;-68
2022/02/12 08:00:51;;;;;;;27.60;9.93;;;;;;;-1.19;96.75;99891.56;5083062;28;20046;-68
2022/02/12 08:03:17;;;;;;;34.08;8.98;;;;;;;-0.90;96.49;99895.47;5082663;28;20028;-68
2022/02/12 08:05:42;;;;;;;21.60;7.93;;;;;;;-0.63;96.29;99891.53;5083082;28;20021;-68
2022/02/12 08:08:08;;;;;;;15.43;6.30;;;;;;;-0.34;96.38;99902.31;5083000;28;20241;-68
2022/02/12 08:13:18;;;;;;;25.10;5.70;;;;;;;0.17;95.42;99897.59;5083021;28;20024;-68
2022/02/12 08:15:43;;;;;;;30.80;4.88;;;;;;;0.50;95.07;99901.56;5082520;28;20084;-68
2022/02/12 08:18:09;;;;;;;38.58;5.22;;;;;;;0.72;94.51;99891.19;5082818;28;20216;-68
2022/02/12 08:20:34;;;;;;;13.80;4.88;;;;;;;0.95;93.78;99895.59;5082772;28;20020;-68
2022/02/12 08:23:00;;;;;;;21.38;6.25;;;;;;;1.16;93.34;99891.19;5082846;28;20020;-68
2022/02/12 08:25:25;;;;;;;16.73;5.20;;;;;;;1.52;92.52;99887.38;5082647;28;20363;-69
2022/02/12 08:27:51;;;;;;;16.88;5.15;;;;;;;2.31;89.94;99891.00;5082431;28;20219;-69
2022/02/12 08:30:16;;;;;;;18.70;4.53;;;;;;;2.94;86.50;99873.09;5082438;28;20100;-69
2022/02/12 08:32:43;;;;;;;8.88;4.40;;;;;;;3.47;83.08;99878.16;5082904;28;20012;-68
2022/02/12 08:35:12;;;;;;;12.43;3.83;;;;;;;3.92;80.51;99879.41;5082686;28;20021;-68
2022/02/12 08:37:39;;;;;;;20.35;4.80;;;;;;;4.33;79.32;99868.31;5082639;28;20040;-68
2022/02/12 08:40:07;;;;;;;17.48;4.70;;;;;;;4.56;77.78;99866.28;5082701;28;20032;-68
2022/02/12 08:42:34;;;;;;;11.52;4.43;;;;;;;4.88;76.24;99864.41;5082257;28;20271;-68
2022/02/12 08:44:59;;;;;;;14.32;4.78;;;;;;;5.40;76.01;99862.06;5082873;28;20131;-68
2022/02/12 08:47:25;;;;;;;24.58;5.13;;;;;;;5.20;75.29;99868.59;5082646;28;20473;-68
2022/02/12 08:49:50;;;;;;;11.68;4.55;;;;;;;5.80;72.54;99865.50;5082417;28;20020;-68
2022/02/12 08:52:15;;;;;;;9.65;4.05;;;;;;;6.17;72.31;99872.31;5082570;28;20024;-68
2022/02/12 08:54:41;;;;;;;16.17;4.57;;;;;;;6.36;70.37;99870.03;5082132;28;20197;-68
2022/02/12 08:57:06;;;;;;;13.05;4.13;;;;;;;6.47;70.55;99878.06;5082434;28;20031;-68
2022/02/12 08:59:32;;;;;;;22.35;5.18;;;;;;;6.82;69.57;99862.91;5082483;28;20114;-68
2022/02/12 09:01:58;;;;;;;17.13;5.18;;;;;;;7.05;68.30;99872.00;5082268;28;20024;-68
2022/02/12 09:04:23;;;;;;;13.73;4.22;;;;;;;6.43;69.47;99871.03;5082414;28;20029;-68
2022/02/12 09:06:49;;;;;;;10.30;3.70;;;;;;;7.18;68.80;99872.16;5086139;28;20082;-69
2022/02/12 09:09:15;;;;;;;16.92;4.13;;;;;;;7.16;67.32;99873.00;5084989;28;20013;-69
2022/02/12 09:11:42;;;;;;;12.88;4.30;;;;;;;7.12;67.46;99872.06;5085038;28;20020;-69
2022/02/12 09:14:09;;;;;;;16.38;4.88;;;;;;;7.35;67.56;99875.91;5084242;28;20034;-69
2022/02/12 09:16:36;;;;;;;11.90;3.85;;;;;;;7.23;67.58;99870.50;5084823;28;20012;-69
2022/02/12 09:19:02;;;;;;;20.17;5.07;;;;;;;7.50;65.44;99865.59;5084778;28;20224;-69
2022/02/12 09:21:28;;;;;;;8.55;3.40;;;;;;;7.84;65.06;99854.66;5084465;28;20020;-69
2022/02/12 09:23:53;;;;;;;15.75;4.32;;;;;;;7.44;65.50;99868.16;5084739;28;20043;-69
2022/02/12 09:26:20;;;;;;;8.40;3.72;;;;;;;7.52;66.31;99863.91;5085304;28;20058;-69
2022/02/12 09:28:47;;;;;;;11.27;4.25;;;;;;;7.65;66.30;99852.69;5084545;28;20044;-69
2022/02/12 09:31:12;;;;;;;12.05;3.85;;;;;;;7.88;64.53;99853.81;5084630;28;20036;-69
2022/02/12 09:33:38;;;;;;;13.15;4.05;;;;;;;7.95;63.65;99854.78;5091353;28;20020;-69
2022/02/12 09:36:04;;;;;;;16.73;4.28;;;;;;;7.63;64.14;99849.16;5084709;28;20052;-69
2022/02/12 09:38:30;;;;;;;12.27;3.83;;;;;;;7.13;66.10;99847.69;5086102;28;20044;-68
2022/02/12 09:40:57;;;;;;;14.43;3.50;;;;;;;7.74;65.37;99839.69;5088016;28;20366;-68
2022/02/12 09:43:25;;;;;;;12.55;3.75;;;;;;;7.58;64.49;99836.88;5084515;28;20044;-68
2022/02/12 09:46:04;;;;;;;16.40;4.50;;;;;;;7.30;65.53;99840.91;5082900;28;20245;-68
2022/02/12 09:48:34;;;;;;;15.43;4.20;;;;;;;7.89;64.92;99844.22;5086939;28;20101;-68
2022/02/12 09:51:00;;;;;;;13.43;4.28;;;;;;;7.65;64.25;99838.69;5084469;28;20047;-68
2022/02/12 09:53:28;;;;;;;12.75;3.90;;;;;;;7.79;65.41;99832.75;5082280;28;20021;-68
2022/02/12 09:55:54;;;;;;;14.10;3.80;;;;;;;7.82;63.26;99832.78;5081269;28;20020;-68
2022/02/12 09:58:20;;;;;;;13.45;4.10;;;;;;;7.68;64.43;99828.25;5082011;28;20020;-69
2022/02/12 10:00:45;;;;;;;12.15;3.63;;;;;;;7.94;63.41;99821.56;5084999;28;20026;-69
2022/02/12 10:03:11;;;;;;;21.77;4.78;;;;;;;7.85;63.56;99821.47;5084225;28;20374;-69
2022/02/12 10:05:38;;;;;;;13.32;4.22;;;;;;;8.19;63.47;99820.91;5084342;28;20091;-69
2022/02/12 10:08:04;;;;;;;21.38;3.47;;;;;;;7.60;63.29;99815.09;5084011;28;20216;-68
2022/02/12 10:10:32;;;;;;;12.98;3.20;;;;;;;8.10;62.61;99808.59;5084199;28;20020;-69
2022/02/12 10:13:18;;;;;;;12.85;3.28;;;;;;;7.79;62.64;99800.44;5083540;28;20262;-69
2022/02/12 10:15:52;;;;;;;11.63;3.33;;;;;;;7.53;63.69;99808.00;5082668;28;20040;-69
2022/02/12 10:18:20;;;;;;;11.73;3.70;;;;;;;7.66;64.19;99802.03;5083168;28;20266;-69
2022/02/12 10:20:47;;;;;;;8.13;3.35;;;;;;;7.41;63.74;99799.16;5080959;28;20023;-69
2022/02/12 10:23:15;;;;;;;14.68;3.75;;;;;;;7.99;63.64;99785.78;5083713;28;20020;-69
2022/02/12 10:25:43;;;;;;;12.18;3.72;;;;;;;8.28;62.48;99785.19;5083276;28;20092;-69
2022/02/12 10:28:10;;;;;;;17.33;4.50;;;;;;;7.81;63.16;99783.84;5080404;28;20087;-69
2022/02/12 10:30:36;;;;;;;9.60;3.60;;;;;;;8.04;62.58;99792.81;5083033;28;20094;-69
2022/02/12 10:33:05;;;;;;;15.82;3.70;;;;;;;7.43;63.32;99779.97;5083658;28;20024;-69
2022/02/12 10:35:32;;;;;;;14.90;3.85;;;;;;;7.70;63.03;99775.03;5083236;28;20052;-69
2022/02/12 10:38:00;;;;;;;9.43;3.85;;;;;;;7.38;63.16;99765.06;5083236;28;20052;-69
2022/02/12 10:40:27;;;;;;;18.77;4.63;;;;;;;7.39;63.49;99767.69;5083303;28;20304;-69
2022/02/12 10:42:53;;;;;;;13.38;3.92;;;;;;;7.42;63.52;99767.72;5083495;28;20020;-69
2022/02/12 10:45:19;;;;;;;20.58;4.78;;;;;;;7.61;63.70;99768.78;5083199;28;20042;-69
2022/02/12 10:47:47;;;;;;;17.77;4.80;;;;;;;7.41;63.29;99759.84;5083457;28;20063;-69
2022/02/12 10:50:14;;;;;;;10.95;4.05;;;;;;;7.32;63.55;99760.63;5083241;28;20027;-69
2022/02/12 10:52:46;;;;;;;10.85;3.28;;;;;;;7.35;64.17;99760.69;5082895;28;20016;-69
2022/02/12 10:55:30;;;;;;;10.70;3.72;;;;;;;7.35;64.10;99754.53;5083375;28;20401;-69
2022/02/12 10:58:03;;;;;;;15.65;4.18;;;;;;;7.19;64.56;99752.63;5081310;28;20028;-69
2022/02/12 11:00:31;;;;;;;17.25;4.00;;;;;;;7.18;64.29;99746.50;5083612;28;20016;-69
2022/02/12 11:02:57;;;;;;;13.27;2.95;;;;;;;7.52;63.84;99732.91;5082905;28;20311;-69
2022/02/12 11:05:23;;;;;;;12.88;3.47;;;;;;;7.43;61.88;99734.56;5082550;28;20220;-69
2022/02/12 11:07:52;;;;;;;16.92;4.05;;;;;;;7.25;63.65;99735.25;5081114;28;20192;-69
2022/02/12 11:10:20;;;;;;;13.05;3.25;;;;;;;7.56;62.23;99734.69;5082852;28;20066;-69
2022/02/12 11:12:45;;;;;;;14.15;3.40;;;;;;;7.81;62.89;99744.53;5082806;28;20024;-69
2022/02/12 11:15:11;;;;;;;14.90;3.08;;;;;;;7.76;62.10;99733.16;5079267;28;20410;-69
2022/02/12 11:17:38;;;;;;;15.65;2.85;;;;;;;7.80;60.62;99719.22;5081912;28;20027;-69
2022/02/12 11:20:08;;;;;;;11.20;2.92;;;;;;;7.87;59.78;99715.78;5079072;28;20027;-69
2022/02/12 11:22:35;;;;;;;8.93;3.22;;;;;;;7.80;58.87;99698.25;5082647;28;20043;-69
2022/02/12 11:25:01;;;;;;;9.95;2.00;;;;;;;8.04;58.00;99698.41;5082394;28;20078;-69
2022/02/12 11:27:31;;;;;;;3.38;1.90;;;;;;;7.97;57.51;99691.38;5082888;28;20017;-69
2022/02/12 11:30:16;;;;;;;5.68;1.48;;;;;;;7.83;57.06;99682.53;5082105;28;20308;-69